Time;durP1;ratioP1;P1;durP2;ratioP2;P2;SDS_P1;SDS_P2;PMS_P1;PMS_P2;Temp;Humidity;BMP_temperature;BMP_pressure;BME280_temperature;BME280_humidity;BME280_pressure;Samples;Min_cycle;Max_cycle;Signal;HPM_P1;HPM_P2
2021/03/17 00:01:40;;;;;;;15.80;14.18;;;8.30;99.90;;;8.37;80.73;102516.34;4938197;29;20058;-75
2021/03/17 00:04:28;;;;;;;16.90;15.20;;;8.20;99.90;;;8.49;80.73;102514.09;4937869;29;20422;-75
2021/03/17 00:07:14;;;;;;;19.15;16.13;;;8.30;99.90;;;8.46;80.47;102511.34;4938050;29;20197;-75
2021/03/17 00:10:00;;;;;;;17.85;16.05;;;8.40;99.90;;;8.47;80.48;102515.78;4938336;29;20733;-74
2021/03/17 00:12:47;;;;;;;18.83;16.92;;;8.30;99.90;;;8.53;80.46;102505.44;4937978;29;20517;-75
2021/03/17 00:15:36;;;;;;;17.88;16.05;;;8.30;99.90;;;8.56;80.67;102512.53;4936806;29;20050;-75
2021/03/17 00:18:22;;;;;;;19.60;17.52;;;8.30;99.90;;;8.58;80.86;102517.00;4938108;29;20462;-75
2021/03/17 00:21:08;;;;;;;18.48;16.58;;;8.40;99.90;;;8.66;80.18;102535.69;4938135;29;20098;-75
2021/03/17 00:23:53;;;;;;;19.85;17.80;;;8.50;99.90;;;8.72;79.83;102536.78;4937817;29;20187;-75
2021/03/17 00:26:39;;;;;;;19.95;17.52;;;8.50;99.90;;;8.80;79.32;102526.47;4937854;29;20059;-75
2021/03/17 00:29:26;;;;;;;20.70;18.42;;;8.60;99.90;;;8.81;79.28;102530.88;4937644;29;20512;-76
2021/03/17 00:32:12;;;;;;;22.45;18.95;;;8.60;99.90;;;8.67;79.22;102525.19;4937613;29;20524;-73
2021/03/17 00:34:58;;;;;;;20.83;18.42;;;8.60;99.90;;;8.80;79.60;102545.81;4937338;29;20062;-75
2021/03/17 00:37:47;;;;;;;22.83;19.58;;;8.60;99.90;;;8.70;79.07;102553.41;4937543;29;20133;-76
2021/03/17 00:40:33;;;;;;;23.58;19.88;;;8.60;99.90;;;8.72;79.43;102551.72;4937753;29;20058;-75
2021/03/17 00:43:21;;;;;;;23.15;19.80;;;8.60;99.90;;;8.76;79.07;102553.59;4937167;29;20520;-75
2021/03/17 00:46:07;;;;;;;22.33;18.55;;;8.60;99.90;;;8.41;79.54;102567.44;4937101;29;20171;-76
2021/03/17 00:48:35;;;;;;;22.35;17.55;;;8.30;99.90;;;8.61;79.39;102564.59;4936950;29;20502;-75
2021/03/17 00:51:14;;;;;;;20.58;16.30;;;8.50;99.90;;;8.46;79.82;102560.59;4920186;29;20502;-75
2021/03/17 00:54:00;;;;;;;18.20;14.65;;;8.40;99.90;;;8.55;79.75;102558.22;4936897;29;20054;-75
2021/03/17 00:56:29;;;;;;;16.10;13.68;;;8.40;99.90;;;8.56;79.96;102565.28;4920390;29;20060;-75
2021/03/17 00:58:57;;;;;;;17.23;13.70;;;8.40;99.90;;;8.28;79.86;102520.44;4937291;29;20106;-75
2021/03/17 01:01:26;;;;;;;15.70;13.35;;;8.40;99.90;;;8.61;79.28;102561.97;4937042;29;20051;-75
2021/03/17 01:03:53;;;;;;;14.32;11.70;;;8.50;99.90;;;8.57;79.44;102575.00;4919835;29;20102;-75
2021/03/17 01:06:21;;;;;;;10.45;9.35;;;8.50;99.90;;;8.64;79.66;102558.50;4936876;29;20113;-75
2021/03/17 01:08:48;;;;;;;11.25;9.70;;;8.50;99.90;;;8.76;79.02;102566.78;4936619;29;20509;-76
2021/03/17 01:11:16;;;;;;;10.10;9.10;;;8.60;99.90;;;8.77;79.00;102587.03;4936542;29;20048;-74
2021/03/17 01:13:44;;;;;;;9.25;8.23;;;8.60;99.90;;;8.69;78.80;102588.56;4936440;29;20040;-75
2021/03/17 01:16:12;;;;;;;10.15;8.00;;;8.60;99.90;;;8.77;78.83;102587.03;4936796;29;20055;-75
2021/03/17 01:18:40;;;;;;;8.15;7.35;;;8.60;99.90;;;8.78;79.18;102575.63;4936952;29;20054;-75
2021/03/17 01:21:08;;;;;;;7.97;7.18;;;8.70;99.90;;;8.67;79.02;102575.31;4936423;29;20047;-75
2021/03/17 01:23:35;;;;;;;8.02;6.30;;;8.60;99.90;;;8.77;79.44;102584.38;4936337;29;20119;-75
2021/03/17 01:26:03;;;;;;;6.50;5.38;;;8.60;99.90;;;8.72;78.48;102579.00;4935938;29;20048;-75
2021/03/17 01:28:30;;;;;;;8.35;6.00;;;8.70;99.90;;;8.58;79.43;102587.31;4936522;29;20103;-75
2021/03/17 01:30:59;;;;;;;6.25;5.57;;;8.50;99.90;;;8.53;79.45;102591.56;4936466;29;20080;-74
2021/03/17 01:33:29;;;;;;;5.70;5.20;;;8.40;99.90;;;8.64;79.06;102590.16;4919248;29;20557;-76
2021/03/17 01:35:58;;;;;;;5.10;4.60;;;8.50;99.90;;;8.70;78.99;102582.41;4919383;29;20458;-75
2021/03/17 01:38:27;;;;;;;6.68;4.57;;;8.50;99.90;;;8.62;79.03;102578.66;4936380;29;20402;-76
2021/03/17 01:40:55;;;;;;;5.30;4.72;;;8.50;99.90;;;8.29;79.16;102574.94;4918969;29;20052;-76
2021/03/17 01:43:23;;;;;;;4.95;4.43;;;8.30;99.90;;;8.45;79.51;102586.06;4936066;29;20450;-76
2021/03/17 01:45:52;;;;;;;5.85;5.25;;;8.30;99.90;;;8.56;79.22;102591.63;4936251;29;20044;-76
2021/03/17 01:48:20;;;;;;;8.15;5.15;;;8.40;99.90;;;8.58;79.07;102588.22;4936143;29;20130;-76
2021/03/17 01:50:51;;;;;;;5.25;4.75;;;8.50;99.90;;;8.55;79.74;102584.59;4935888;29;20502;-76
2021/03/17 01:53:25;;;;;;;5.57;4.50;;;8.50;99.90;;;8.65;79.38;102584.03;4935933;29;20425;-76
2021/03/17 01:55:52;;;;;;;5.55;4.53;;;8.50;99.90;;;8.61;79.08;102580.41;4936102;29;20044;-76
2021/03/17 01:58:21;;;;;;;5.25;4.55;;;8.60;99.90;;;8.66;79.05;102560.34;4935695;29;20071;-76
2021/03/17 02:00:49;;;;;;;4.88;4.38;;;8.60;99.90;;;8.75;78.81;102557.97;4936020;29;20044;-76
2021/03/17 02:03:16;;;;;;;5.18;4.78;;;8.60;99.90;;;8.67;79.45;102554.19;4935985;29;20047;-77
2021/03/17 02:05:47;;;;;;;7.03;4.45;;;8.50;99.90;;;8.72;79.16;102542.06;4935926;29;20039;-77
2021/03/17 02:08:19;;;;;;;8.52;4.95;;;8.50;99.90;;;8.66;79.59;102551.53;4935935;29;20044;-76
2021/03/17 02:10:48;;;;;;;5.13;4.47;;;8.50;99.90;;;8.72;79.22;102544.69;4935644;29;20058;-76
2021/03/17 02:13:55;;;;;;;5.72;4.18;;;8.50;99.90;;;8.67;79.74;102542.78;4935845;29;20083;-76
2021/03/17 02:16:30;;;;;;;5.10;4.50;;;8.50;99.90;;;8.73;78.89;102542.97;4914994;29;20055;-77
2021/03/17 02:19:41;;;;;;;4.55;4.05;;;8.50;99.90;;;8.63;79.04;102540.88;4935880;29;20048;-77
2021/03/17 02:22:30;;;;;;;5.70;5.18;;;8.50;99.90;;;8.51;79.47;102553.69;4935553;29;20526;-76
2021/03/17 02:25:09;;;;;;;6.32;4.85;;;8.30;99.90;;;8.54;79.70;102557.31;4935784;29;20044;-77
2021/03/17 02:27:56;;;;;;;7.25;4.90;;;8.30;99.90;;;8.44;79.80;102557.00;4935911;29;20047;-77
2021/03/17 02:30:59;;;;;;;5.55;4.95;;;8.30;99.90;;;8.45;80.37;102559.69;4935752;29;20398;-76
2021/03/17 02:33:45;;;;;;;5.10;4.75;;;8.20;99.90;;;8.33;80.93;102545.19;4906704;29;20150;-77
2021/03/17 02:36:19;;;;;;;8.98;4.50;;;8.10;99.90;;;8.31;81.07;102542.53;4935201;29;20060;-77
2021/03/17 02:39:05;;;;;;;4.82;4.20;;;8.10;99.90;;;8.19;81.50;102540.34;4937270;29;20066;-76
2021/03/17 02:41:51;;;;;;;4.97;4.57;;;8.10;99.90;;;8.31;81.21;102537.25;4939648;29;20043;-77
2021/03/17 02:44:21;;;;;;;7.75;5.05;;;8.10;99.90;;;8.21;81.39;102541.31;4939561;29;20059;-77
2021/03/17 02:46:48;;;;;;;6.78;4.57;;;8.00;99.90;;;8.31;81.79;102541.63;4939500;29;20051;-77
2021/03/17 02:49:22;;;;;;;6.18;4.57;;;8.10;99.90;;;8.41;81.71;102547.25;4939383;29;20052;-77
2021/03/17 02:51:55;;;;;;;8.35;4.75;;;8.10;99.90;;;8.33;81.79;102548.75;4939687;29;20530;-77
2021/03/17 02:54:24;;;;;;;5.10;4.70;;;8.10;99.90;;;8.49;81.63;102558.94;4939271;29;20043;-77
2021/03/17 02:56:57;;;;;;;6.10;4.90;;;8.20;99.90;;;8.56;81.48;102546.81;4939457;29;20098;-77
2021/03/17 02:59:28;;;;;;;8.48;5.35;;;8.30;99.90;;;8.27;81.71;102538.00;4938917;29;20052;-77
2021/03/17 03:01:58;;;;;;;10.73;4.95;;;8.10;99.90;;;8.21;82.35;102546.56;4939290;29;20098;-77
2021/03/17 03:04:28;;;;;;;4.57;4.20;;;8.00;99.90;;;8.15;82.25;102514.75;4939247;29;20107;-77
2021/03/17 03:06:58;;;;;;;7.80;5.20;;;8.10;99.90;;;8.16;83.02;102542.91;4939124;29;20126;-77
2021/03/17 03:09:27;;;;;;;7.07;4.60;;;8.00;99.90;;;8.34;82.38;102539.09;4939289;29;20099;-77
2021/03/17 03:11:57;;;;;;;5.97;4.53;;;8.10;99.90;;;8.38;82.53;102549.75;4938954;29;20117;-77
2021/03/17 03:14:27;;;;;;;6.90;4.85;;;8.10;99.90;;;8.45;82.38;102533.31;4939004;29;20066;-77
2021/03/17 03:16:58;;;;;;;7.33;4.70;;;8.30;99.90;;;8.39;81.96;102532.22;4938960;29;20099;-77
2021/03/17 03:19:30;;;;;;;;;;;8.20;99.90;;;8.30;82.68;102539.84;4922286;29;20112;-77
2021/03/17 03:21:59;;;;;;;8.57;5.20;;;8.20;99.90;;;8.13;82.85;102478.63;4938861;29;20373;-77
2021/03/17 03:24:26;;;;;;;9.95;4.78;;;8.20;99.90;;;8.15;83.31;102533.19;4938530;29;20052;-77
2021/03/17 03:26:54;;;;;;;7.10;5.10;;;8.10;99.90;;;8.18;84.23;102535.94;4938697;29;20044;-77
2021/03/17 03:29:22;;;;;;;6.40;4.97;;;8.10;99.90;;;8.11;85.16;102536.56;4938671;29;20044;-77
2021/03/17 03:31:49;;;;;;;9.00;5.97;;;8.00;99.90;;;7.92;86.01;102533.28;4938560;29;20490;-77
2021/03/17 03:34:17;;;;;;;8.15;4.80;;;7.80;99.90;;;8.06;86.14;102545.19;4938268;29;20057;-77
2021/03/17 03:36:46;;;;;;;10.95;5.32;;;7.90;99.90;;;8.29;85.73;102532.78;4921210;29;20058;-77
2021/03/17 03:39:16;;;;;;;14.60;6.03;;;8.00;99.90;;;8.26;86.35;102527.41;4938549;29;20134;-78
2021/03/17 03:41:43;;;;;;;7.03;6.27;;;8.10;99.90;;;8.34;85.86;102534.72;4938528;29;20051;-77
2021/03/17 03:44:11;;;;;;;11.00;5.55;;;8.20;99.90;;;8.22;86.38;102529.03;4938407;29;20051;-78
2021/03/17 03:46:39;;;;;;;6.03;5.25;;;8.10;99.90;;;8.25;86.33;102531.78;4938322;29;20119;-77
2021/03/17 03:49:08;;;;;;;6.75;5.68;;;8.10;99.90;;;8.39;85.87;102524.31;4921175;29;20597;-76
2021/03/17 03:51:40;;;;;;;9.95;5.40;;;8.20;99.90;;;8.47;86.19;102528.06;4938320;29;20048;-77
2021/03/17 03:54:16;;;;;;;7.55;5.35;;;8.30;99.90;;;8.51;85.92;102535.22;4938286;29;20110;-76
2021/03/17 03:56:55;;;;;;;6.57;5.40;;;8.30;99.90;;;8.46;85.65;102529.81;4938349;29;20118;-77
2021/03/17 03:59:27;;;;;;;10.32;5.45;;;8.40;99.90;;;8.53;86.00;102526.53;4938190;29;20134;-77
2021/03/17 04:01:58;;;;;;;9.10;5.60;;;8.30;99.90;;;8.42;85.99;102527.06;4938163;29;20093;-77
2021/03/17 04:04:31;;;;;;;5.50;5.00;;;8.30;99.90;;;8.30;86.26;102545.13;4938058;29;20401;-77
2021/03/17 04:07:03;;;;;;;9.68;4.30;;;8.30;99.90;;;8.41;86.03;102546.34;4921046;29;20063;-77
2021/03/17 04:09:42;;;;;;;7.15;4.80;;;8.30;99.90;;;8.51;86.00;102543.16;4938070;29;20051;-76
2021/03/17 04:12:12;;;;;;;8.93;4.20;;;8.40;99.90;;;8.55;85.65;102535.38;4921034;29;20059;-77
2021/03/17 04:14:44;;;;;;;7.13;4.85;;;8.50;99.90;;;8.36;85.69;102518.94;4937908;29;20059;-77
2021/03/17 04:17:19;;;;;;;6.28;4.35;;;8.40;99.90;;;8.59;85.88;102557.47;4937708;29;20516;-77
2021/03/17 04:19:52;;;;;;;4.28;3.85;;;8.50;99.90;;;8.47;85.65;102531.63;4937893;29;20054;-77
2021/03/17 04:22:23;;;;;;;5.20;4.70;;;8.50;99.90;;;8.66;85.88;102549.78;4937887;29;20054;-78
2021/03/17 04:24:55;;;;;;;4.28;3.97;;;8.50;99.90;;;8.57;85.56;102553.88;4937826;29;20055;-75
2021/03/17 04:27:25;;;;;;;6.97;4.05;;;8.50;99.90;;;8.64;85.56;102553.22;4937439;29;20044;-77
2021/03/17 04:29:54;;;;;;;4.93;4.53;;;8.50;99.90;;;8.69;85.41;102567.47;4937671;29;20099;-77
2021/03/17 04:32:22;;;;;;;5.40;4.38;;;8.60;99.90;;;8.71;85.37;102571.03;4937611;29;20130;-77
2021/03/17 04:34:52;;;;;;;5.15;3.80;;;8.60;99.90;;;8.62;85.32;102565.47;4937287;29;20063;-77
2021/03/17 04:37:21;;;;;;;6.45;4.10;;;8.60;99.90;;;8.36;84.80;102508.41;4937513;29;20484;-78
2021/03/17 04:39:50;;;;;;;7.72;4.28;;;8.60;99.90;;;8.70;84.80;102556.03;4937439;29;20548;-76
2021/03/17 04:42:23;;;;;;;5.72;4.45;;;8.60;99.90;;;8.75;85.07;102565.88;4937441;29;20051;-77
2021/03/17 04:44:51;;;;;;;7.35;4.75;;;8.70;99.90;;;8.75;84.34;102563.25;4937391;29;20051;-76
2021/03/17 04:47:21;;;;;;;5.45;4.38;;;8.70;99.90;;;8.75;84.22;102557.97;4937292;29;20131;-77
2021/03/17 04:49:50;;;;;;;8.07;4.57;;;8.70;99.90;;;8.75;84.10;102575.56;4937230;29;20476;-77
2021/03/17 04:52:20;;;;;;;7.07;4.68;;;8.70;99.90;;;8.82;83.86;102561.69;4937224;29;20047;-75
2021/03/17 04:54:47;;;;;;;10.60;5.15;;;8.70;99.90;;;8.59;83.92;102562.75;4936797;29;20082;-77
2021/03/17 04:57:22;;;;;;;14.98;5.30;;;8.60;99.90;;;8.61;84.07;102564.59;4936837;29;20047;-77
2021/03/17 04:59:51;;;;;;;9.30;4.88;;;8.50;99.90;;;8.58;83.61;102579.41;4937009;29;20067;-77
2021/03/17 05:02:23;;;;;;;13.40;4.95;;;8.50;99.90;;;8.49;84.34;102579.13;4936478;29;20111;-78
2021/03/17 05:04:52;;;;;;;9.85;4.93;;;8.50;99.90;;;8.49;84.46;102571.22;4937035;29;20051;-77
2021/03/17 05:07:21;;;;;;;14.18;5.07;;;8.50;99.90;;;8.63;84.54;102578.69;4936894;29;20142;-76
2021/03/17 05:09:50;;;;;;;15.20;5.35;;;8.50;99.90;;;8.63;84.53;102567.28;4936627;29;20048;-74
2021/03/17 05:12:23;;;;;;;8.85;4.55;;;8.50;99.90;;;8.27;84.35;102560.81;4936536;29;20504;-79
2021/03/17 05:14:52;;;;;;;11.77;4.93;;;8.30;99.90;;;8.40;84.83;102563.91;4936782;29;20056;-79
2021/03/17 05:17:38;;;;;;;10.23;4.60;;;8.30;99.90;;;8.50;84.10;102560.72;4936827;29;20071;-76
2021/03/17 05:20:09;;;;;;;11.60;5.03;;;8.40;99.90;;;8.55;83.48;102563.50;4936784;29;20052;-75
2021/03/17 05:22:38;;;;;;;8.55;4.25;;;8.50;99.90;;;8.59;83.30;102558.38;4936683;29;20111;-74
2021/03/17 05:25:09;;;;;;;9.18;4.57;;;8.50;99.90;;;8.55;83.02;102555.59;4936874;29;20047;-73
2021/03/17 05:27:39;;;;;;;14.95;5.05;;;8.50;99.90;;;8.66;82.74;102560.34;4919470;29;20079;-75
2021/03/17 05:30:10;;;;;;;9.50;4.13;;;8.60;99.90;;;8.66;82.18;102565.63;4936481;29;20040;-75
2021/03/17 05:32:40;;;;;;;9.48;4.75;;;8.60;99.90;;;8.71;82.34;102560.50;4936518;29;20114;-74
2021/03/17 05:35:10;;;;;;;;;;;8.70;99.90;;;8.16;81.32;102441.84;4919769;29;20063;-75
2021/03/17 05:37:39;;;;;;;8.95;4.40;;;8.70;99.90;;;8.89;81.01;102561.00;4919296;29;20373;-74
2021/03/17 05:40:10;;;;;;;7.28;4.00;;;8.80;99.90;;;8.88;81.10;102554.84;4936037;29;20064;-75
2021/03/17 05:42:40;;;;;;;9.48;3.95;;;8.80;99.90;;;8.88;80.37;102560.09;4936072;29;20521;-74
2021/03/17 05:45:11;;;;;;;10.48;4.88;;;8.90;99.90;;;8.88;80.54;102567.16;4919162;29;20558;-76
2021/03/17 05:47:44;;;;;;;14.10;4.38;;;8.90;99.90;;;8.91;80.35;102569.88;4936289;29;20083;-74
2021/03/17 05:50:15;;;;;;;8.15;4.60;;;8.90;99.90;;;8.94;79.82;102577.91;4936212;29;20048;-74
2021/03/17 05:52:43;;;;;;;;;;;8.90;99.90;;;8.87;79.88;102565.34;4936632;29;20044;-78
2021/03/17 05:55:14;;;;;;;10.45;4.63;;;8.80;99.90;;;8.93;79.99;102558.53;4935753;29;20001;-76
2021/03/17 05:57:45;;;;;;;11.60;4.28;;;8.80;99.90;;;8.53;80.12;102530.91;4936190;29;20047;-76
2021/03/17 06:00:15;;;;;;;12.45;4.68;;;8.80;99.90;;;8.71;80.52;102550.81;4935880;29;20051;-76
2021/03/17 06:02:42;;;;;;;10.80;4.20;;;8.70;99.90;;;8.69;80.60;102549.00;4919065;29;20056;-76
2021/03/17 06:05:12;;;;;;;12.80;4.53;;;8.60;99.90;;;8.87;80.13;102555.69;4935957;29;20060;-76
2021/03/17 06:07:43;;;;;;;7.50;3.75;;;8.70;99.90;;;8.87;79.54;102562.72;4935588;29;20563;-75
2021/03/17 06:10:13;;;;;;;10.30;4.40;;;8.70;99.90;;;8.76;79.54;102570.31;4935962;29;20047;-77
2021/03/17 06:12:48;;;;;;;6.82;4.18;;;8.70;99.90;;;8.77;78.99;102563.28;4935242;29;20086;-76
2021/03/17 06:15:21;;;;;;;8.85;4.10;;;8.70;99.90;;;8.69;78.60;102552.50;4918320;29;20102;-76
2021/03/17 06:17:55;;;;;;;7.82;3.92;;;8.70;99.90;;;8.67;78.38;102582.34;4935811;29;20047;-76
2021/03/17 06:20:24;;;;;;;5.03;3.70;;;8.60;99.90;;;8.70;78.67;102550.78;4918791;29;20051;-76
2021/03/17 06:22:52;;;;;;;10.98;4.75;;;8.70;99.90;;;8.61;78.74;102584.78;4935540;29;20126;-76
2021/03/17 06:25:20;;;;;;;8.13;4.13;;;8.60;99.90;;;8.56;78.68;102583.72;4935699;29;20051;-76
2021/03/17 06:27:51;;;;;;;9.68;4.97;;;8.60;99.90;;;8.55;78.88;102579.31;4936011;29;20087;-77
2021/03/17 06:30:20;;;;;;;9.07;4.30;;;8.50;99.90;;;8.52;79.73;102584.47;4935729;29;20059;-77
2021/03/17 06:32:47;;;;;;;8.95;4.30;;;8.50;99.90;;;8.56;80.46;102575.81;4935652;29;20055;-76
2021/03/17 06:35:23;;;;;;;7.88;3.83;;;8.50;99.90;;;8.56;80.60;102570.53;4935408;29;20494;-77
2021/03/17 06:37:55;;;;;;;10.98;4.50;;;8.50;99.90;;;8.61;80.78;102558.41;4935281;29;20561;-75
2021/03/17 06:40:29;;;;;;;12.00;4.57;;;8.50;99.90;;;8.57;81.25;102570.63;4935071;29;20051;-75
2021/03/17 06:43:05;;;;;;;10.15;5.22;;;8.50;99.90;;;8.64;81.80;102584.88;4918495;29;20056;-77
2021/03/17 06:45:36;;;;;;;12.20;4.45;;;8.50;99.90;;;8.72;81.59;102584.28;4935619;29;20052;-77
2021/03/17 06:48:25;;;;;;;8.32;4.68;;;8.70;99.90;;;8.66;81.45;102591.09;4935357;29;20039;-77
2021/03/17 06:51:09;;;;;;;10.95;4.93;;;8.70;99.90;;;8.74;81.16;102602.78;4935592;29;20508;-77
2021/03/17 06:53:42;;;;;;;12.27;5.32;;;8.60;99.90;;;8.43;81.27;102561.38;4935522;29;20058;-75
2021/03/17 06:56:16;;;;;;;10.57;5.47;;;8.60;99.90;;;8.67;81.30;102614.00;4918296;29;20506;-76
2021/03/17 06:58:47;;;;;;;8.95;4.10;;;8.60;99.90;;;8.59;81.02;102607.59;4935548;29;20048;-77
2021/03/17 07:01:33;;;;;;;6.60;4.75;;;8.60;99.90;;;8.69;80.69;102609.66;4935476;29;20051;-76
2021/03/17 07:04:04;;;;;;;10.18;5.25;;;8.60;99.90;;;8.71;80.87;102602.69;4918367;29;20450;-77
2021/03/17 07:06:33;;;;;;;8.52;5.15;;;8.60;99.90;;;8.62;80.52;102607.66;4935291;29;20052;-76
2021/03/17 07:09:16;;;;;;;8.23;4.68;;;8.50;99.90;;;8.58;80.03;102616.31;4935304;29;20062;-77
2021/03/17 07:11:45;;;;;;;9.93;4.43;;;8.50;99.90;;;8.58;79.45;102625.13;4935143;29;20518;-77
2021/03/17 07:14:14;;;;;;;10.40;4.90;;;8.50;99.90;;;8.66;79.17;102625.38;4935602;29;20044;-77
2021/03/17 07:16:46;;;;;;;9.52;5.32;;;8.60;99.90;;;8.51;79.02;102609.06;4935125;29;20138;-78
2021/03/17 07:19:37;;;;;;;10.10;5.55;;;8.60;99.90;;;8.59;78.76;102637.50;4935156;29;20103;-77
2021/03/17 07:22:09;;;;;;;6.70;4.68;;;8.60;99.90;;;7.79;78.87;102520.56;4935012;29;20067;-76
2021/03/17 07:24:38;;;;;;;10.63;5.13;;;8.60;99.90;;;8.53;78.81;102660.13;4919159;29;20066;-76
2021/03/17 07:27:16;;;;;;;8.73;4.90;;;8.50;99.90;;;8.33;78.90;102651.56;4938520;29;20056;-76
2021/03/17 07:29:46;;;;;;;7.15;4.10;;;8.50;99.90;;;8.50;78.75;102670.56;4938470;29;20549;-77
2021/03/17 07:32:14;;;;;;;6.78;4.97;;;8.40;99.90;;;8.63;78.55;102678.91;4921821;29;20142;-76
2021/03/17 07:34:42;;;;;;;8.73;4.47;;;8.60;99.90;;;8.68;78.52;102672.06;4938473;29;20099;-75
2021/03/17 07:37:10;;;;;;;9.93;4.10;;;8.60;99.90;;;8.63;78.32;102683.31;4938657;29;20051;-76
2021/03/17 07:39:40;;;;;;;8.48;4.07;;;8.60;99.90;;;8.52;78.07;102679.41;4938550;29;20055;-76
2021/03/17 07:42:10;;;;;;;6.68;4.32;;;8.50;99.90;;;8.60;78.41;102677.94;4938262;29;20083;-74
2021/03/17 07:44:39;;;;;;;;;;;8.60;99.90;;;8.04;78.29;102594.31;4921634;29;20083;-76
2021/03/17 07:47:10;;;;;;;9.82;4.93;;;8.50;99.90;;;8.53;78.74;102674.22;4938439;29;19922;-76
2021/03/17 07:49:47;;;;;;;8.68;5.03;;;8.50;99.90;;;8.60;78.54;102681.47;4938466;29;20047;-76
2021/03/17 07:52:19;;;;;;;10.02;3.88;;;8.60;99.90;;;8.54;78.18;102665.44;4938428;29;20059;-76
2021/03/17 07:54:53;;;;;;;7.43;3.88;;;8.50;99.90;;;8.48;78.40;102662.59;4938331;29;20048;-76
2021/03/17 07:57:26;;;;;;;10.95;4.03;;;8.50;99.90;;;8.60;78.55;102668.28;4938292;29;20405;-76
2021/03/17 07:59:56;;;;;;;6.13;4.10;;;8.60;99.90;;;8.56;77.71;102673.41;4938224;29;20079;-76
2021/03/17 08:02:25;;;;;;;6.68;3.85;;;8.50;99.90;;;8.59;77.15;102684.06;4938102;29;20076;-76
2021/03/17 08:04:53;;;;;;;6.93;3.78;;;8.50;99.90;;;8.47;76.94;102654.66;4938025;29;20048;-78
2021/03/17 08:07:21;;;;;;;11.80;4.63;;;8.60;99.90;;;8.56;77.34;102687.50;4937912;29;20099;-76
2021/03/17 08:09:51;;;;;;;8.35;4.60;;;8.60;99.90;;;8.53;77.95;102689.13;4920785;29;20050;-77
2021/03/17 08:12:20;;;;;;;7.88;4.18;;;8.50;99.90;;;8.63;77.95;102683.31;4937776;29;20050;-75
2021/03/17 08:14:49;;;;;;;6.35;3.92;;;8.60;99.90;;;8.55;78.03;102684.81;4920670;29;20051;-74
2021/03/17 08:17:32;;;;;;;6.47;3.95;;;8.50;99.90;;;8.62;78.18;102681.50;4937893;29;20059;-79
2021/03/17 08:20:20;;;;;;;9.23;3.92;;;8.50;99.90;;;8.69;77.92;102683.53;4937659;29;20130;-76
2021/03/17 08:22:51;;;;;;;9.15;4.10;;;8.60;99.90;;;8.69;78.00;102700.22;4937658;29;20106;-77
2021/03/17 08:25:45;;;;;;;23.35;10.93;;;8.60;99.90;;;8.66;78.38;102699.25;4937489;29;20059;-80
2021/03/17 08:28:19;;;;;;;27.77;13.32;;;8.60;99.90;;;8.77;78.15;102716.31;4893763;29;20059;-73
2021/03/17 08:30:48;;;;;;;18.15;7.88;;;8.60;99.90;;;8.78;77.88;102715.47;4937612;29;20107;-76
2021/03/17 08:33:33;;;;;;;7.75;5.30;;;8.70;99.90;;;8.73;77.34;102711.81;4937269;29;20073;-81
2021/03/17 08:36:06;;;;;;;11.05;4.57;;;8.70;99.90;;;8.83;77.20;102708.59;4936085;29;20581;-79
2021/03/17 08:38:54;;;;;;;10.55;4.32;;;8.70;99.90;;;8.87;76.54;102715.75;4937304;29;20115;-79
2021/03/17 08:41:56;;;;;;;10.05;4.60;;;8.80;99.90;;;8.90;76.58;102715.88;4937422;29;20078;-79
2021/03/17 08:44:25;;;;;;;9.63;4.13;;;8.80;99.90;;;8.82;76.05;102715.63;4932632;29;20068;-79
2021/03/17 08:46:57;;;;;;;7.63;4.22;;;8.80;99.90;;;8.84;75.68;102713.94;4920273;29;20044;-77
2021/03/17 08:49:33;;;;;;;8.10;4.13;;;8.80;99.90;;;8.82;75.79;102713.00;4937338;29;20098;-79
2021/03/17 08:52:10;;;;;;;9.68;4.53;;;8.80;99.90;;;8.79;75.87;102704.06;4937305;29;20051;-79
2021/03/17 08:55:01;;;;;;;6.03;4.78;;;8.80;99.90;;;8.61;76.10;102677.09;4937245;29;20061;-79
2021/03/17 08:58:07;;;;;;;8.75;4.70;;;8.70;99.90;;;8.82;76.65;102706.81;4937376;29;20052;-79
2021/03/17 09:00:51;;;;;;;9.13;3.95;;;8.70;99.90;;;8.69;75.95;102709.91;4920015;29;20055;-78
2021/03/17 09:03:44;;;;;;;10.63;4.40;;;8.70;99.90;;;8.75;75.99;102705.72;4936723;29;20115;-79
2021/03/17 09:06:19;;;;;;;15.18;5.00;;;8.70;99.90;;;8.81;76.25;102705.91;4937320;29;20044;-79
2021/03/17 09:09:17;;;;;;;9.60;4.90;;;8.70;99.90;;;8.93;76.09;102708.03;4936801;29;20039;-79
2021/03/17 09:11:57;;;;;;;8.98;4.93;;;8.80;99.90;;;8.99;75.24;102713.53;4936918;29;20383;-79
2021/03/17 09:14:35;;;;;;;6.95;3.78;;;8.90;99.90;;;8.55;74.81;102614.50;4936652;29;20398;-80
2021/03/17 09:17:31;;;;;;;5.93;3.60;;;9.00;99.90;;;9.03;74.87;102702.22;4936822;29;20050;-80
2021/03/17 09:20:22;;;;;;;8.60;4.25;;;8.90;99.90;;;9.00;73.95;102713.56;4936754;29;20051;-81
2021/03/17 09:23:04;;;;;;;7.90;4.47;;;9.00;99.90;;;8.93;74.45;102715.97;4936651;29;20066;-80
2021/03/17 09:25:36;;;;;;;5.75;3.80;;;8.90;99.90;;;8.98;74.59;102717.03;4936570;29;20102;-73
2021/03/17 09:28:07;;;;;;;9.15;4.78;;;8.90;99.90;;;8.95;74.57;102725.72;4936217;29;20055;-74
2021/03/17 09:30:43;;;;;;;11.13;4.47;;;8.90;99.90;;;8.70;75.02;102711.69;4936740;29;20171;-75
2021/03/17 09:33:16;;;;;;;56.70;27.65;;;8.80;99.90;;;8.85;75.95;102734.19;4936278;29;20074;-72
2021/03/17 09:35:53;;;;;;;29.83;15.55;;;8.80;99.90;;;8.95;75.96;102727.47;4936223;29;20130;-74
2021/03/17 09:38:24;;;;;;;20.95;9.20;;;8.90;99.90;;;8.97;75.95;102729.31;4936383;29;20055;-78
2021/03/17 09:41:00;;;;;;;16.85;8.48;;;8.90;99.90;;;9.10;75.86;102717.38;4936424;29;20052;-76
2021/03/17 09:43:38;;;;;;;23.65;11.57;;;9.00;99.90;;;9.03;75.53;102752.34;4935616;29;20043;-72
2021/03/17 09:46:32;;;;;;;7.80;5.25;;;9.00;99.90;;;9.15;74.89;102723.72;4935992;29;20043;-75
2021/03/17 09:49:05;;;;;;;19.42;8.10;;;9.00;99.90;;;9.29;74.24;102719.72;4933415;29;20062;-71
2021/03/17 09:51:37;;;;;;;11.77;6.10;;;9.20;99.90;;;9.39;73.71;102724.44;4936391;29;20043;-75
2021/03/17 09:54:09;;;;;;;7.40;5.30;;;9.30;99.90;;;9.18;73.54;102697.41;4936336;29;20044;-75
2021/03/17 09:56:41;;;;;;;11.77;5.38;;;9.20;99.90;;;9.41;72.81;102722.75;4918766;29;20075;-73
2021/03/17 09:59:21;;;;;;;14.48;5.75;;;9.30;99.90;;;9.36;72.92;102719.09;4936146;29;20130;-75
2021/03/17 10:01:51;;;;;;;;;;;9.30;99.90;;;9.38;72.58;102712.09;4936431;29;20055;-73
2021/03/17 10:04:22;;;;;;;9.45;5.00;;;9.40;99.90;;;9.30;72.15;102681.03;4918874;29;20020;-72
2021/03/17 10:06:51;;;;;;;13.90;5.28;;;9.30;99.90;;;9.56;72.02;102707.34;4936355;29;20406;-71
2021/03/17 10:09:21;;;;;;;7.95;4.00;;;9.40;99.90;;;9.40;72.38;102705.13;4935909;29;20039;-72
2021/03/17 10:11:49;;;;;;;10.93;5.32;;;9.40;99.90;;;9.56;72.48;102711.75;4935602;29;20051;-75
2021/03/17 10:14:18;;;;;;;13.02;5.82;;;9.40;99.90;;;9.72;72.27;102709.59;4935922;29;20066;-74
2021/03/17 10:16:46;;;;;;;17.55;7.53;;;9.60;99.90;;;9.78;72.41;102704.47;4935652;29;20501;-73
2021/03/17 10:19:15;;;;;;;9.23;4.82;;;9.70;99.90;;;9.93;71.72;102704.91;4935707;29;20127;-74
2021/03/17 10:21:53;;;;;;;11.57;4.72;;;9.80;99.90;;;9.98;71.13;102700.66;4935730;29;20122;-74
2021/03/17 10:24:37;;;;;;;12.07;5.22;;;9.90;99.90;;;9.99;71.05;102689.22;4935811;29;20130;-80
2021/03/17 10:27:10;;;;;;;12.20;5.45;;;9.90;99.90;;;10.06;71.14;102692.94;4935379;29;20038;-79
2021/03/17 10:29:38;;;;;;;12.30;4.80;;;10.00;99.90;;;9.37;70.54;102603.78;4935502;29;20090;-86
2021/03/17 10:32:08;;;;;;;14.63;4.75;;;9.90;99.90;;;9.96;70.43;102696.16;4935517;29;20091;-74
2021/03/17 10:34:37;;;;;;;13.93;5.70;;;9.80;99.90;;;10.06;70.45;102692.94;4935562;29;20103;-75
2021/03/17 10:37:11;;;;;;;13.18;4.90;;;9.90;99.90;;;9.46;70.59;102649.84;4935531;29;20039;-69
2021/03/17 10:39:40;;;;;;;10.38;4.90;;;9.70;99.90;;;9.93;70.57;102694.31;4935299;29;20078;-68
2021/03/17 10:42:19;;;;;;;8.60;4.63;;;9.80;99.90;;;9.98;70.43;102692.72;4935788;29;20043;-66
2021/03/17 10:45:02;;;;;;;14.60;5.15;;;9.90;99.90;;;10.13;70.34;102694.91;4935534;29;20040;-69
2021/03/17 10:47:30;;;;;;;14.55;4.43;;;10.00;99.90;;;10.29;70.19;102696.19;4935807;29;20047;-69
2021/03/17 10:49:57;;;;;;;7.65;4.47;;;10.20;99.90;;;10.14;68.85;102687.88;4935199;29;20075;-73
2021/03/17 10:52:34;;;;;;;12.13;4.82;;;10.10;99.90;;;10.22;67.89;102702.19;4935493;29;20550;-67